createdAt,value
2017-06-15T00:00:54.569Z,11.49
2017-06-15T00:01:53.890Z,11.38
2017-06-15T00:02:53.685Z,11.39
2017-06-15T00:03:53.341Z,11.43
2017-06-15T00:04:53.663Z,11.46
2017-06-15T00:05:53.326Z,11.51
2017-06-15T00:06:53.303Z,11.41
2017-06-15T00:07:54.020Z,11.42
2017-06-15T00:08:53.649Z,11.42
2017-06-15T00:09:54.168Z,11.46
2017-06-15T00:10:53.985Z,11.39
2017-06-15T00:11:53.759Z,11.45
2017-06-15T00:12:52.964Z,11.41
2017-06-15T00:13:53.274Z,11.41
2017-06-15T00:14:53.269Z,11.43
2017-06-15T00:15:53.263Z,11.43
2017-06-15T00:16:53.254Z,11.41
2017-06-15T00:17:53.765Z,11.56
2017-06-15T00:18:53.238Z,11.53
2017-06-15T00:19:53.593Z,11.45
2017-06-15T00:20:53.220Z,11.41
2017-06-15T00:21:53.220Z,11.43
2017-06-15T00:22:54.450Z,11.49
2017-06-15T00:23:53.528Z,11.46
2017-06-15T00:24:53.550Z,11.48
2017-06-15T00:25:53.209Z,11.45
2017-06-15T00:26:53.515Z,11.41
2017-06-15T00:27:53.204Z,11.42
2017-06-15T00:28:53.167Z,11.42
2017-06-15T00:29:53.487Z,11.35
2017-06-15T00:30:53.895Z,11.41
2017-06-15T00:31:54.225Z,11.28
2017-06-15T00:32:53.143Z,11.33
2017-06-15T00:33:53.453Z,11.3
2017-06-15T00:34:53.448Z,11.31
2017-06-15T00:35:53.453Z,11.31
2017-06-15T00:36:53.450Z,11.33
2017-06-15T00:37:53.920Z,11.18
2017-06-15T00:38:53.095Z,11.3
2017-06-15T00:39:53.418Z,11.13
2017-06-15T00:40:54.302Z,11.1
2017-06-15T00:41:54.022Z,11.12
2017-06-15T00:42:53.082Z,11.16
2017-06-15T00:43:53.068Z,11.13
2017-06-15T00:44:53.395Z,11.08
2017-06-15T00:45:53.370Z,11.15
2017-06-15T00:46:52.741Z,11.03
2017-06-15T00:47:53.860Z,11.05
2017-06-15T00:48:53.750Z,11.03
2017-06-15T00:49:53.367Z,11.06
2017-06-15T00:50:53.353Z,11.02
2017-06-15T00:51:53.322Z,11.03
2017-06-15T00:52:53.162Z,11.05
2017-06-15T00:53:52.666Z,10.97
2017-06-15T00:54:52.896Z,10.9
2017-06-15T00:55:53.800Z,10.94
2017-06-15T00:56:53.622Z,10.95
2017-06-15T00:57:53.280Z,10.91
2017-06-15T00:58:52.967Z,10.94
2017-06-15T00:59:52.948Z,10.88
2017-06-15T01:00:53.277Z,10.87
2017-06-15T01:01:52.620Z,10.97
2017-06-15T01:02:52.924Z,10.8
2017-06-15T01:03:52.915Z,10.85
2017-06-15T01:04:53.240Z,10.85
2017-06-15T01:05:54.148Z,10.77
2017-06-15T01:06:53.897Z,10.83
2017-06-15T01:07:53.223Z,10.76
2017-06-15T01:08:52.900Z,10.79
2017-06-15T01:09:53.228Z,10.79
2017-06-15T01:10:53.305Z,10.79
2017-06-15T01:11:52.856Z,10.84
2017-06-15T01:12:53.185Z,10.75
2017-06-15T01:13:53.160Z,10.66
2017-06-15T01:14:52.832Z,10.66
2017-06-15T01:15:53.176Z,10.61
2017-06-15T01:16:53.401Z,10.66
2017-06-15T01:17:53.131Z,10.66
2017-06-15T01:18:52.801Z,10.67
2017-06-15T01:19:52.798Z,10.65
2017-06-15T01:20:53.125Z,10.65
2017-06-15T01:21:53.564Z,10.67
2017-06-15T01:22:53.749Z,10.73
2017-06-15T01:23:53.850Z,10.67
2017-06-15T01:24:53.092Z,10.59
2017-06-15T01:25:52.747Z,10.63
2017-06-15T01:26:52.434Z,10.61
2017-06-15T01:27:53.268Z,10.63
2017-06-15T01:28:53.047Z,10.59
2017-06-15T01:29:53.061Z,10.63
2017-06-15T01:30:53.030Z,10.57
2017-06-15T01:31:53.358Z,10.59
2017-06-15T01:32:52.696Z,10.54
2017-06-15T01:33:53.014Z,10.59
2017-06-15T01:34:53.025Z,10.58
2017-06-15T01:35:52.674Z,10.55
2017-06-15T01:36:53.278Z,10.47
2017-06-15T01:37:52.993Z,10.55
2017-06-15T01:38:53.397Z,10.61
2017-06-15T01:39:53.021Z,10.54
2017-06-15T01:40:52.973Z,10.63
2017-06-15T01:41:52.966Z,10.57
2017-06-15T01:42:52.637Z,10.54
2017-06-15T01:43:53.370Z,10.55
2017-06-15T01:44:52.744Z,10.55
2017-06-15T01:45:52.934Z,10.59
2017-06-15T01:46:52.269Z,10.55
2017-06-15T01:47:52.736Z,10.55
2017-06-15T01:48:53.416Z,10.51
2017-06-15T01:49:52.570Z,10.57
2017-06-15T01:50:52.552Z,10.52
2017-06-15T01:51:52.884Z,10.52
2017-06-15T01:52:52.421Z,10.46
2017-06-15T01:53:53.030Z,10.44
2017-06-15T01:54:52.670Z,10.44
2017-06-15T01:55:52.351Z,10.47
2017-06-15T01:56:52.212Z,10.46
2017-06-15T01:57:53.061Z,10.46
2017-06-15T01:58:52.818Z,10.52
2017-06-15T01:59:52.487Z,10.51
2017-06-15T02:00:52.890Z,10.54
2017-06-15T02:01:53.421Z,10.49
2017-06-15T02:02:52.476Z,10.57
2017-06-15T02:03:52.779Z,10.55
2017-06-15T02:04:52.796Z,10.54
2017-06-15T02:05:52.653Z,10.55
2017-06-15T02:06:53.208Z,10.55
2017-06-15T02:07:52.109Z,10.57
2017-06-15T02:08:52.819Z,10.52
2017-06-15T02:09:52.872Z,10.55
2017-06-15T02:10:52.722Z,10.58
2017-06-15T02:11:52.399Z,10.55
2017-06-15T02:12:52.615Z,10.46
2017-06-15T02:13:52.558Z,10.51
2017-06-15T02:14:52.694Z,10.44
2017-06-15T02:15:52.770Z,10.44
2017-06-15T02:16:52.735Z,10.39
2017-06-15T02:17:52.348Z,10.39
2017-06-15T02:18:52.658Z,10.39
2017-06-15T02:19:52.579Z,10.33
2017-06-15T02:20:52.321Z,10.33
2017-06-15T02:21:52.334Z,10.35
2017-06-15T02:22:52.466Z,10.29
2017-06-15T02:23:52.745Z,10.25
2017-06-15T02:24:52.289Z,10.17
2017-06-15T02:25:52.659Z,10.23
2017-06-15T02:26:52.597Z,10.15
2017-06-15T02:27:51.952Z,10.14
2017-06-15T02:28:52.259Z,10.1
2017-06-15T02:29:53.031Z,10.21
2017-06-15T02:30:52.563Z,10.29
2017-06-15T02:31:52.236Z,10.29
2017-06-15T02:32:52.544Z,10.26
2017-06-15T02:33:52.230Z,10.31
2017-06-15T02:34:52.142Z,10.17
2017-06-15T02:35:53.324Z,10.29
2017-06-15T02:36:53.542Z,10.28
2017-06-15T02:37:52.204Z,10.17
2017-06-15T02:38:52.184Z,10.17
2017-06-15T02:39:53.285Z,10.15
2017-06-15T02:40:52.162Z,10.05
2017-06-15T02:41:52.159Z,10.14
2017-06-15T02:42:52.468Z,10.07
2017-06-15T02:43:52.140Z,10.1
2017-06-15T02:44:52.577Z,10
2017-06-15T02:45:53.297Z,10.05
2017-06-15T02:46:52.592Z,10.11
2017-06-15T02:47:52.428Z,10.07
2017-06-15T02:48:52.097Z,10.03
2017-06-15T02:49:53.144Z,9.98
2017-06-15T02:50:52.127Z,10.07
2017-06-15T02:51:52.084Z,9.99
2017-06-15T02:52:52.387Z,10.07
2017-06-15T02:53:52.403Z,9.99
2017-06-15T02:54:52.080Z,10.1
2017-06-15T02:55:52.836Z,10.03
2017-06-15T02:56:52.548Z,9.98
2017-06-15T02:57:52.357Z,9.92
2017-06-15T02:58:52.518Z,10
2017-06-15T02:59:52.565Z,10.07
2017-06-15T03:00:52.481Z,10.07
2017-06-15T03:01:52.317Z,10.07
2017-06-15T03:02:52.711Z,10.05
2017-06-15T03:03:52.263Z,10.05
2017-06-15T03:04:52.586Z,10.13
2017-06-15T03:05:52.282Z,10.1
2017-06-15T03:06:51.954Z,10.05
2017-06-15T03:07:51.948Z,10.11
2017-06-15T03:08:52.261Z,10.11
2017-06-15T03:09:52.501Z,10.07
2017-06-15T03:10:52.644Z,10.1
2017-06-15T03:11:52.772Z,10.08
2017-06-15T03:12:52.226Z,10.02
2017-06-15T03:13:51.893Z,10.02
2017-06-15T03:14:52.119Z,10.08
2017-06-15T03:15:52.866Z,10.07
2017-06-15T03:16:51.870Z,10.03
2017-06-15T03:17:52.354Z,10.07
2017-06-15T03:18:52.792Z,10.08
2017-06-15T03:19:52.122Z,10.07
2017-06-15T03:20:51.842Z,10.07
2017-06-15T03:21:52.179Z,10.18
2017-06-15T03:22:52.171Z,10.1
2017-06-15T03:23:52.854Z,10.15
2017-06-15T03:24:52.082Z,10.17
2017-06-15T03:25:51.941Z,10.23
2017-06-15T03:26:52.126Z,10.25
2017-06-15T03:27:52.101Z,10.2
2017-06-15T03:28:51.799Z,10.21
2017-06-15T03:29:51.763Z,10.26
2017-06-15T03:30:53.119Z,10.26
2017-06-15T03:31:52.065Z,10.23
2017-06-15T03:32:52.057Z,10.17
2017-06-15T03:33:52.074Z,10.31
2017-06-15T03:34:51.723Z,10.25
2017-06-15T03:35:52.248Z,10.31
2017-06-15T03:36:52.403Z,10.21
2017-06-15T03:37:51.698Z,10.26
2017-06-15T03:38:52.916Z,10.28
2017-06-15T03:39:52.029Z,10.28
2017-06-15T03:40:51.668Z,10.28
2017-06-15T03:41:51.668Z,10.29
2017-06-15T03:42:51.976Z,10.32
2017-06-15T03:43:52.633Z,10.28
2017-06-15T03:44:52.529Z,10.35
2017-06-15T03:45:52.432Z,10.42
2017-06-15T03:46:51.625Z,10.44
2017-06-15T03:47:51.293Z,10.36
2017-06-15T03:48:51.287Z,10.46
2017-06-15T03:49:51.923Z,10.49
2017-06-15T03:50:52.997Z,10.52
2017-06-15T03:51:52.848Z,10.54
2017-06-15T03:52:51.598Z,10.58
2017-06-15T03:53:51.888Z,10.67
2017-06-15T03:54:51.893Z,10.67
2017-06-15T03:55:51.878Z,10.72
2017-06-15T03:56:51.557Z,10.65
2017-06-15T03:57:52.841Z,10.63
2017-06-15T03:58:52.316Z,10.67
2017-06-15T03:59:52.752Z,10.75
2017-06-15T04:00:52.036Z,10.76
2017-06-15T04:01:51.832Z,10.88
2017-06-15T04:02:51.816Z,10.97
2017-06-15T04:03:51.586Z,10.97
2017-06-15T04:04:51.750Z,11.05
2017-06-15T04:05:51.837Z,11.05
2017-06-15T04:06:51.783Z,11.15
2017-06-15T04:07:51.459Z,11.13
2017-06-15T04:08:51.812Z,11.24
2017-06-15T04:09:51.780Z,11.3
2017-06-15T04:10:52.076Z,11.31
2017-06-15T04:11:52.464Z,11.41
2017-06-15T04:12:51.418Z,11.51
2017-06-15T04:13:51.409Z,11.59
2017-06-15T04:14:51.423Z,11.56
2017-06-15T04:15:51.394Z,11.56
2017-06-15T04:16:52.046Z,11.68
2017-06-15T04:17:52.753Z,11.61
2017-06-15T04:18:51.528Z,11.67
2017-06-15T04:19:51.365Z,11.66
2017-06-15T04:20:51.357Z,11.66
2017-06-15T04:21:51.351Z,11.71
2017-06-15T04:22:51.346Z,11.66
2017-06-15T04:23:51.658Z,11.7
2017-06-15T04:24:51.711Z,11.73
2017-06-15T04:25:51.860Z,11.85
2017-06-15T04:26:52.711Z,11.91
2017-06-15T04:27:50.985Z,11.78
2017-06-15T04:28:51.299Z,11.95
2017-06-15T04:29:51.630Z,12.03
2017-06-15T04:30:51.611Z,12.07
2017-06-15T04:31:51.688Z,12.07
2017-06-15T04:32:51.988Z,12.08
2017-06-15T04:33:51.264Z,12.08
2017-06-15T04:34:51.575Z,12.19
2017-06-15T04:35:51.757Z,12.2
2017-06-15T04:36:52.275Z,12.26
2017-06-15T04:37:52.200Z,12.28
2017-06-15T04:38:51.573Z,12.29
2017-06-15T04:39:50.896Z,12.44
2017-06-15T04:40:51.222Z,12.55
2017-06-15T04:41:51.365Z,12.66
2017-06-15T04:42:50.912Z,12.73
2017-06-15T04:43:51.966Z,12.88
2017-06-15T04:44:51.882Z,12.95
2017-06-15T04:45:51.273Z,12.95
2017-06-15T04:46:51.574Z,12.98
2017-06-15T04:47:51.606Z,13.1
2017-06-15T04:48:52.181Z,13.27
2017-06-15T04:49:51.252Z,13.35
2017-06-15T04:50:51.464Z,13.45
2017-06-15T04:51:51.174Z,13.45
2017-06-15T04:52:51.474Z,13.48
2017-06-15T04:53:51.439Z,13.51
2017-06-15T04:54:51.411Z,13.66
2017-06-15T04:55:50.874Z,13.68
2017-06-15T04:56:51.464Z,13.83
2017-06-15T04:57:51.433Z,13.9
2017-06-15T04:58:50.795Z,13.87
2017-06-15T04:59:51.849Z,13.95
2017-06-15T05:00:51.540Z,13.95
2017-06-15T05:01:51.082Z,14.03
2017-06-15T05:02:51.398Z,14.16
2017-06-15T05:03:51.070Z,14.15
2017-06-15T05:04:51.698Z,14.3
2017-06-15T05:05:51.817Z,14.38
2017-06-15T05:06:51.465Z,14.31
2017-06-15T05:07:51.367Z,14.45
2017-06-15T05:08:51.041Z,14.46
2017-06-15T05:09:51.372Z,14.49
2017-06-15T05:10:51.046Z,14.53
2017-06-15T05:11:51.600Z,14.66
2017-06-15T05:12:51.343Z,14.7
2017-06-15T05:13:52.263Z,14.79
2017-06-15T05:14:51.329Z,14.85
2017-06-15T05:15:51.022Z,15.04
2017-06-15T05:16:51.320Z,15
2017-06-15T05:17:51.890Z,15.07
2017-06-15T05:18:51.736Z,15.01
2017-06-15T05:19:51.001Z,15.12
2017-06-15T05:20:51.310Z,15.12
2017-06-15T05:21:51.295Z,15.22
2017-06-15T05:22:51.300Z,15.31
2017-06-15T05:23:51.285Z,15.27
2017-06-15T05:24:51.833Z,15.35
2017-06-15T05:25:52.186Z,15.33
2017-06-15T05:26:50.653Z,15.35
2017-06-15T05:27:50.943Z,15.43
2017-06-15T05:28:50.940Z,15.41
2017-06-15T05:29:50.942Z,15.51
2017-06-15T05:30:50.933Z,15.62
2017-06-15T05:31:51.250Z,15.71
2017-06-15T05:32:50.923Z,15.73
2017-06-15T05:33:51.242Z,15.99
2017-06-15T05:34:51.601Z,16
2017-06-15T05:35:52.325Z,16.13
2017-06-15T05:36:51.259Z,16.16
2017-06-15T05:37:51.226Z,16.29
2017-06-15T05:38:50.576Z,16.36
2017-06-15T05:39:51.215Z,16.48
2017-06-15T05:40:51.228Z,16.49
2017-06-15T05:41:50.886Z,16.65
2017-06-15T05:42:51.209Z,16.52
2017-06-15T05:43:50.879Z,16.69
2017-06-15T05:44:51.198Z,16.66
2017-06-15T05:45:51.191Z,16.77
2017-06-15T05:46:50.869Z,16.72
2017-06-15T05:47:51.184Z,16.77
2017-06-15T05:48:51.182Z,16.81
2017-06-15T05:49:51.190Z,16.82
2017-06-15T05:50:51.179Z,16.87
2017-06-15T05:51:50.895Z,16.85
2017-06-15T05:52:51.176Z,16.85
2017-06-15T05:53:50.839Z,17.02
2017-06-15T05:54:50.593Z,17.13
2017-06-15T05:55:51.172Z,16.99
2017-06-15T05:56:51.152Z,17.09
2017-06-15T05:57:50.848Z,17.13
2017-06-15T05:58:50.831Z,17.15
2017-06-15T05:59:50.839Z,17.2
2017-06-15T06:00:50.820Z,17.2
2017-06-15T06:01:50.815Z,17.22
2017-06-15T06:02:50.833Z,17.28
2017-06-15T06:03:50.825Z,17.22
2017-06-15T06:04:51.177Z,17.28
2017-06-15T06:05:50.820Z,17.42
2017-06-15T06:06:50.801Z,17.46
2017-06-15T06:07:51.121Z,17.49
2017-06-15T06:08:50.474Z,17.58
2017-06-15T06:09:50.792Z,17.6
2017-06-15T06:10:51.117Z,17.47
2017-06-15T06:11:50.788Z,17.58
2017-06-15T06:12:50.485Z,17.6
2017-06-15T06:13:50.463Z,17.69
2017-06-15T06:14:50.780Z,17.77
2017-06-15T06:15:51.102Z,17.87
2017-06-15T06:16:50.777Z,17.88
2017-06-15T06:17:50.455Z,17.95
2017-06-15T06:18:51.100Z,17.98
2017-06-15T06:19:50.770Z,18.03
2017-06-15T06:20:51.086Z,18.06
2017-06-15T06:21:50.762Z,18.1
2017-06-15T06:22:51.089Z,18.08
2017-06-15T06:23:51.090Z,18.13
2017-06-15T06:24:51.079Z,18.19
2017-06-15T06:25:51.089Z,18.17
2017-06-15T06:26:50.773Z,18.2
2017-06-15T06:27:50.430Z,18.21
2017-06-15T06:28:50.746Z,18.32
2017-06-15T06:29:50.749Z,18.38
2017-06-15T06:30:50.780Z,18.41
2017-06-15T06:31:50.769Z,18.41
2017-06-15T06:32:51.066Z,18.41
2017-06-15T06:33:51.060Z,18.54
2017-06-15T06:34:51.084Z,18.51
2017-06-15T06:35:50.754Z,18.61
2017-06-15T06:36:50.949Z,18.75
2017-06-15T06:37:51.051Z,18.94
2017-06-15T06:38:51.054Z,19.3
2017-06-15T06:39:51.051Z,19.8
2017-06-15T06:40:50.730Z,20.63
2017-06-15T06:41:51.046Z,21.76
2017-06-15T06:42:50.725Z,22.76
2017-06-15T06:43:50.724Z,23.78
2017-06-15T06:44:50.723Z,24.63
2017-06-15T06:45:51.044Z,25.47
2017-06-15T06:46:51.049Z,26.03
2017-06-15T06:47:50.724Z,26.68
2017-06-15T06:48:50.739Z,27.31
2017-06-15T06:49:50.405Z,28.01
2017-06-15T06:50:51.051Z,28.45
2017-06-15T06:51:51.195Z,28.94
2017-06-15T06:52:51.059Z,29.15
2017-06-15T06:53:50.762Z,29.43
2017-06-15T06:54:51.063Z,29.6
2017-06-15T06:55:51.066Z,29.73
2017-06-15T06:56:50.749Z,29.89
2017-06-15T06:57:51.070Z,30.04
2017-06-15T06:58:50.766Z,29.92
2017-06-15T06:59:51.085Z,29.95
2017-06-15T07:00:51.089Z,30.09
2017-06-15T07:01:50.768Z,30.18
2017-06-15T07:02:50.779Z,30.22
2017-06-15T07:03:50.779Z,30.51
2017-06-15T07:04:50.796Z,30.42
2017-06-15T07:05:50.796Z,30.59
2017-06-15T07:06:50.801Z,30.64
2017-06-15T07:07:50.799Z,30.63
2017-06-15T07:08:50.810Z,31.01
2017-06-15T07:09:51.139Z,31.34
2017-06-15T07:10:51.140Z,31.63
2017-06-15T07:11:51.158Z,31.77
2017-06-15T07:12:50.835Z,32.03
2017-06-15T07:13:51.163Z,32.15
2017-06-15T07:14:50.849Z,32.39
2017-06-15T07:15:50.555Z,32.37
2017-06-15T07:16:50.863Z,32.15
2017-06-15T07:17:51.191Z,32.17
2017-06-15T07:18:51.198Z,32.24
2017-06-15T07:19:51.202Z,32.24
2017-06-15T07:20:50.889Z,32.2
2017-06-15T07:21:50.895Z,32
2017-06-15T07:22:51.225Z,31.98
2017-06-15T07:23:51.234Z,32.01
2017-06-15T07:24:50.938Z,31.98
2017-06-15T07:25:51.247Z,32.09
2017-06-15T07:26:51.259Z,31.94
2017-06-15T07:27:50.953Z,31.98
2017-06-15T07:28:51.277Z,32.03
2017-06-15T07:29:51.285Z,31.88
2017-06-15T07:30:51.300Z,31.82
2017-06-15T07:31:50.985Z,31.68
2017-06-15T07:32:51.305Z,31.63
2017-06-15T07:33:50.668Z,31.72
2017-06-15T07:34:50.998Z,31.86
2017-06-15T07:35:51.029Z,31.91
2017-06-15T07:36:51.338Z,31.9
2017-06-15T07:37:51.347Z,32.2
2017-06-15T07:38:51.041Z,32.38
2017-06-15T07:39:51.364Z,32.46
2017-06-15T07:40:51.371Z,32.24
2017-06-15T07:41:51.428Z,32.05
2017-06-15T07:42:51.389Z,32.15
2017-06-15T07:43:51.107Z,32.13
2017-06-15T07:44:51.085Z,32.27
2017-06-15T07:45:50.793Z,32.27
2017-06-15T07:46:51.429Z,32.43
2017-06-15T07:47:51.114Z,32.42
2017-06-15T07:48:51.128Z,32.46
2017-06-15T07:49:51.129Z,32.52
2017-06-15T07:50:51.459Z,32.76
2017-06-15T07:51:51.145Z,32.79
2017-06-15T07:52:51.152Z,32.76
2017-06-15T07:53:51.487Z,32.76
2017-06-15T07:54:51.498Z,32.98
2017-06-15T07:55:51.204Z,33.18
2017-06-15T07:56:51.536Z,33.29
2017-06-15T07:57:51.203Z,33.39
2017-06-15T07:58:51.571Z,33.43
2017-06-15T07:59:51.222Z,33.5
2017-06-15T08:00:51.236Z,33.46
2017-06-15T08:01:51.242Z,33.09
2017-06-15T08:02:51.252Z,32.8
2017-06-15T08:03:51.576Z,32.65
2017-06-15T08:04:51.264Z,32.47
2017-06-15T08:05:51.596Z,32.35
2017-06-15T08:06:51.284Z,32.45
2017-06-15T08:07:51.624Z,32.43
2017-06-15T08:08:51.301Z,32.46
2017-06-15T08:09:51.654Z,32.42
2017-06-15T08:10:51.639Z,32.34
2017-06-15T08:11:51.323Z,32.35
2017-06-15T08:12:51.665Z,32.38
2017-06-15T08:13:51.662Z,32.47
2017-06-15T08:14:51.672Z,32.42
2017-06-15T08:15:51.388Z,32.43
2017-06-15T08:16:51.364Z,32.39
2017-06-15T08:17:51.693Z,32.23
2017-06-15T08:18:51.377Z,31.82
2017-06-15T08:19:51.392Z,31.52
2017-06-15T08:20:51.717Z,31.08
2017-06-15T08:21:51.730Z,30.67
2017-06-15T08:22:51.406Z,30.26
2017-06-15T08:23:51.089Z,29.79
2017-06-15T08:24:51.096Z,29.4
2017-06-15T08:25:51.423Z,29.11
2017-06-15T08:26:51.451Z,28.65
2017-06-15T08:27:51.435Z,28.2
2017-06-15T08:28:51.464Z,27.83
2017-06-15T08:29:51.770Z,27.55
2017-06-15T08:30:51.772Z,27.46
2017-06-15T08:31:51.458Z,27.37
2017-06-15T08:32:51.789Z,27.08
2017-06-15T08:33:51.791Z,26.94
2017-06-15T08:34:51.802Z,26.82
2017-06-15T08:35:51.163Z,26.74
2017-06-15T08:36:51.165Z,26.63
2017-06-15T08:37:51.491Z,26.61
2017-06-15T08:38:51.827Z,26.59
2017-06-15T08:39:51.838Z,26.64
2017-06-15T08:40:51.195Z,26.6
2017-06-15T08:41:51.186Z,26.61
2017-06-15T08:42:51.518Z,26.6
2017-06-15T08:43:51.842Z,26.63
2017-06-15T08:44:51.526Z,26.76
2017-06-15T08:45:51.215Z,26.84
2017-06-15T08:46:51.555Z,26.74
2017-06-15T08:47:51.540Z,26.54
2017-06-15T08:48:51.866Z,26.47
2017-06-15T08:49:51.889Z,26.35
2017-06-15T08:50:51.575Z,26.41
2017-06-15T08:51:51.876Z,26.49
2017-06-15T08:52:51.562Z,26.38
2017-06-15T08:53:51.569Z,26.47
2017-06-15T08:54:51.573Z,26.38
2017-06-15T08:55:51.574Z,26.39
2017-06-15T08:56:51.903Z,26.38
2017-06-15T08:57:51.589Z,26.42
2017-06-15T08:58:51.913Z,26.42
2017-06-15T08:59:58.350Z,26.38
2017-06-15T09:00:51.599Z,26.41
2017-06-15T09:01:51.280Z,26.38
2017-06-15T09:02:51.928Z,26.3
2017-06-15T09:03:51.610Z,26.31
2017-06-15T09:04:51.622Z,26.22
2017-06-15T09:05:51.938Z,26.27
2017-06-15T09:06:51.948Z,26.27
2017-06-15T09:07:51.634Z,26.32
2017-06-15T09:08:51.953Z,26.22
2017-06-15T09:09:51.635Z,26.17
2017-06-15T09:10:51.959Z,26.11
2017-06-15T09:11:51.644Z,26.01
2017-06-15T09:12:51.644Z,25.97
2017-06-15T09:13:51.993Z,25.91
2017-06-15T09:14:51.674Z,25.93
2017-06-15T09:15:51.985Z,25.97
2017-06-15T09:16:51.983Z,26.03
2017-06-15T09:17:51.666Z,26.04
2017-06-15T09:18:51.670Z,26.19
2017-06-15T09:19:51.674Z,26.3
2017-06-15T09:20:51.358Z,26.34
2017-06-15T09:21:51.679Z,26.41
2017-06-15T09:22:51.697Z,26.49
2017-06-15T09:23:51.688Z,26.32
2017-06-15T09:24:51.701Z,26.31
2017-06-15T09:25:51.704Z,26.19
2017-06-15T09:26:52.021Z,26.15
2017-06-15T09:27:51.388Z,26.34
2017-06-15T09:28:51.706Z,26.26
2017-06-15T09:29:51.714Z,26.31
2017-06-15T09:30:51.395Z,26.38
2017-06-15T09:31:51.723Z,26.39
2017-06-15T09:32:51.739Z,26.47
2017-06-15T09:33:51.404Z,26.45
2017-06-15T09:34:51.414Z,26.49
2017-06-15T09:35:51.734Z,26.53
2017-06-15T09:36:51.414Z,26.47
2017-06-15T09:37:51.762Z,26.34
2017-06-15T09:38:51.745Z,26.37
2017-06-15T09:39:51.757Z,26.49
2017-06-15T09:40:51.759Z,26.39
2017-06-15T09:41:51.777Z,26.32
2017-06-15T09:42:51.441Z,26.19
2017-06-15T09:43:52.089Z,26.16
2017-06-15T09:44:52.094Z,26.15
2017-06-15T09:45:51.776Z,26.2
2017-06-15T09:46:52.101Z,26.19
2017-06-15T09:47:51.782Z,26.23
2017-06-15T09:48:52.112Z,26.26
2017-06-15T09:49:52.124Z,26.12
2017-06-15T09:50:52.118Z,26.16
2017-06-15T09:51:51.471Z,26.24
2017-06-15T09:52:52.142Z,26.09
2017-06-15T09:53:52.145Z,26.09
2017-06-15T09:54:52.173Z,26.03
2017-06-15T09:55:51.812Z,26.19
2017-06-15T09:56:52.139Z,26.17
2017-06-15T09:57:51.501Z,26.17
2017-06-15T09:58:52.146Z,26.17
2017-06-15T09:59:52.148Z,26.16
2017-06-15T10:00:52.151Z,26.01
2017-06-15T10:01:52.165Z,26.22
2017-06-15T10:02:51.515Z,26.24
2017-06-15T10:03:51.839Z,26.31
2017-06-15T10:04:52.173Z,26.26
2017-06-15T10:05:52.187Z,26.27
2017-06-15T10:06:51.848Z,26.32
2017-06-15T10:07:52.175Z,26.31
2017-06-15T10:08:52.176Z,26.37
2017-06-15T10:09:51.858Z,26.31
2017-06-15T10:10:52.183Z,26.34
2017-06-15T10:11:51.543Z,26.34
2017-06-15T10:12:52.195Z,26.31
2017-06-15T10:13:52.195Z,26.26
2017-06-15T10:14:51.559Z,26.2
2017-06-15T10:15:52.201Z,26.24
2017-06-15T10:16:51.886Z,26.32
2017-06-15T10:17:51.565Z,26.34
2017-06-15T10:18:51.899Z,26.38
2017-06-15T10:19:51.577Z,26.42
2017-06-15T10:20:51.902Z,26.31
2017-06-15T10:21:52.229Z,26.34
2017-06-15T10:22:52.232Z,26.35
2017-06-15T10:23:52.233Z,26.27
2017-06-15T10:24:52.237Z,26.39
2017-06-15T10:25:51.932Z,26.37
2017-06-15T10:26:51.922Z,26.31
2017-06-15T10:27:52.247Z,26.19
2017-06-15T10:28:51.929Z,26.23
2017-06-15T10:29:52.255Z,26.19
2017-06-15T10:30:52.276Z,26.3
2017-06-15T10:31:51.936Z,26.26
2017-06-15T10:32:51.943Z,26.42
2017-06-15T10:33:51.957Z,26.32
2017-06-15T10:34:52.286Z,26.38
2017-06-15T10:35:52.277Z,26.39
2017-06-15T10:36:51.975Z,26.42
2017-06-15T10:37:52.282Z,26.53
2017-06-15T10:38:52.288Z,26.45
2017-06-15T10:39:51.970Z,26.44
2017-06-15T10:40:52.018Z,26.63
2017-06-15T10:41:52.302Z,26.64
2017-06-15T10:42:52.303Z,26.57
2017-06-15T10:43:51.978Z,26.52
2017-06-15T10:44:51.663Z,26.49
2017-06-15T10:45:52.309Z,26.45
2017-06-15T10:46:52.315Z,26.49
2017-06-15T10:47:52.317Z,26.54
2017-06-15T10:48:52.322Z,26.54
2017-06-15T10:49:52.326Z,26.59
2017-06-15T10:50:52.326Z,26.61
2017-06-15T10:51:51.691Z,26.61
2017-06-15T10:52:52.336Z,26.74
2017-06-15T10:53:52.342Z,26.74
2017-06-15T10:54:52.343Z,26.67
2017-06-15T10:55:52.354Z,26.71
2017-06-15T10:56:52.051Z,26.64
2017-06-15T10:57:52.351Z,26.81
2017-06-15T10:58:52.360Z,26.79
2017-06-15T10:59:51.721Z,26.75
2017-06-15T11:00:52.365Z,26.69
2017-06-15T11:01:52.047Z,26.67
2017-06-15T11:02:52.374Z,26.67
2017-06-15T11:03:52.053Z,26.78
2017-06-15T11:04:52.384Z,26.69
2017-06-15T11:05:52.060Z,26.76
2017-06-15T11:06:52.410Z,26.84
2017-06-15T11:07:52.073Z,26.81
2017-06-15T11:08:52.411Z,26.84
2017-06-15T11:09:52.080Z,26.89
2017-06-15T11:10:52.078Z,26.87
2017-06-15T11:11:52.430Z,26.97
2017-06-15T11:12:52.089Z,27.05
2017-06-15T11:13:52.108Z,27.16
2017-06-15T11:14:52.428Z,27.09
2017-06-15T11:15:52.447Z,26.91
2017-06-15T11:16:51.809Z,27
2017-06-15T11:17:52.432Z,26.84
2017-06-15T11:18:52.125Z,26.82
2017-06-15T11:19:52.133Z,26.74
2017-06-15T11:20:52.447Z,26.54
2017-06-15T11:21:52.467Z,26.49
2017-06-15T11:22:52.137Z,26.49
2017-06-15T11:23:52.454Z,26.5
2017-06-15T11:24:52.140Z,26.41
2017-06-15T11:25:52.463Z,26.44
2017-06-15T11:26:52.469Z,26.42
2017-06-15T11:27:52.534Z,26.37
2017-06-15T11:28:52.151Z,26.38
2017-06-15T11:29:52.484Z,26.37
2017-06-15T11:30:52.527Z,26.49
2017-06-15T11:31:52.485Z,26.47
2017-06-15T11:32:52.168Z,26.49
2017-06-15T11:33:52.522Z,26.57
2017-06-15T11:34:52.498Z,26.57
2017-06-15T11:35:52.516Z,26.56
2017-06-15T11:36:52.534Z,26.56
2017-06-15T11:37:51.867Z,26.57
2017-06-15T11:38:52.536Z,26.6
2017-06-15T11:39:52.530Z,26.68
2017-06-15T11:40:52.544Z,26.67
2017-06-15T11:41:52.200Z,26.78
2017-06-15T11:42:52.572Z,26.82
2017-06-15T11:43:52.551Z,26.82
2017-06-15T11:44:52.549Z,26.79
2017-06-15T11:45:52.218Z,26.86
2017-06-15T11:46:51.897Z,26.93
2017-06-15T11:47:52.247Z,26.91
2017-06-15T11:48:52.567Z,26.94
2017-06-15T11:49:52.557Z,26.89
2017-06-15T11:50:52.237Z,26.91
2017-06-15T11:51:52.577Z,26.89
2017-06-15T11:52:52.614Z,26.86
2017-06-15T11:53:52.580Z,26.79
2017-06-15T11:54:52.606Z,26.72
2017-06-15T11:55:51.943Z,26.64
2017-06-15T11:56:52.583Z,26.64
2017-06-15T11:57:52.586Z,26.68
2017-06-15T11:58:51.953Z,26.68
2017-06-15T11:59:52.275Z,26.67
2017-06-15T12:00:52.637Z,26.63
2017-06-15T12:01:52.613Z,26.6
2017-06-15T12:02:52.287Z,26.67
2017-06-15T12:03:51.974Z,26.82
2017-06-15T12:04:52.618Z,26.9
2017-06-15T12:05:52.658Z,26.89
2017-06-15T12:06:52.647Z,26.81
2017-06-15T12:07:52.306Z,26.84
2017-06-15T12:08:52.311Z,26.87
2017-06-15T12:09:52.653Z,26.82
2017-06-15T12:10:52.662Z,26.87
2017-06-15T12:11:52.353Z,26.93
2017-06-15T12:12:52.647Z,27.09
2017-06-15T12:13:52.666Z,27.27
2017-06-15T12:14:52.357Z,27.26
2017-06-15T12:15:52.676Z,27.45
2017-06-15T12:16:52.344Z,27.46
2017-06-15T12:17:52.031Z,27.51
2017-06-15T12:18:52.354Z,27.52
2017-06-15T12:19:52.684Z,27.42
2017-06-15T12:20:52.691Z,27.42
2017-06-15T12:21:52.700Z,27.43
2017-06-15T12:22:52.727Z,27.41
2017-06-15T12:23:52.392Z,27.42
2017-06-15T12:24:52.707Z,27.51
2017-06-15T12:25:52.721Z,27.49
2017-06-15T12:26:52.709Z,27.51
2017-06-15T12:27:52.743Z,27.53
2017-06-15T12:28:52.399Z,27.66
2017-06-15T12:29:52.720Z,27.59
2017-06-15T12:30:52.734Z,27.64
2017-06-15T12:31:52.759Z,27.68
2017-06-15T12:32:52.778Z,27.71
2017-06-15T12:33:52.417Z,27.61
2017-06-15T12:34:52.446Z,27.65
2017-06-15T12:35:52.762Z,27.61
2017-06-15T12:36:52.452Z,27.52
2017-06-15T12:37:52.756Z,27.48
2017-06-15T12:38:52.779Z,27.46
2017-06-15T12:39:52.771Z,27.48
2017-06-15T12:40:52.772Z,27.38
2017-06-15T12:41:52.459Z,27.49
2017-06-15T12:42:52.514Z,27.48
2017-06-15T12:43:52.786Z,27.36
2017-06-15T12:44:52.472Z,27.26
2017-06-15T12:45:52.815Z,27.3
2017-06-15T12:46:52.801Z,27.23
2017-06-15T12:47:52.482Z,27.23
2017-06-15T12:48:52.492Z,27.11
2017-06-15T12:49:52.174Z,27.13
2017-06-15T12:50:52.504Z,27.21
2017-06-15T12:51:52.550Z,27.31
2017-06-15T12:52:52.826Z,27.24
2017-06-15T12:53:52.834Z,27.36
2017-06-15T12:54:52.540Z,27.37